Time;durP1;ratioP1;P1;durP2;ratioP2;P2;SDS_P1;SDS_P2;PMS_P1;PMS_P2;Temp;Humidity;BMP_temperature;BMP_pressure;BME280_temperature;BME280_humidity;BME280_pressure;Samples;Min_cycle;Max_cycle;Signal;HPM_P1;HPM_P2
2023/06/22 00:02:58;;;;;;;22.30;20.40;;;;;;;20.44;89.46;99599.07;436189;1255;140306;-61
2023/06/22 00:13:02;;;;;;;22.70;20.60;;;;;;;20.18;89.62;99609.12;436525;1251;140231;-60
2023/06/22 00:23:08;;;;;;;21.40;19.40;;;;;;;20.10;89.43;99612.61;436686;1253;139412;-61
2023/06/22 00:33:11;;;;;;;20.70;18.70;;;;;;;20.00;89.65;99604.73;436762;1251;139306;-61
2023/06/22 00:43:14;;;;;;;23.20;20.80;;;;;;;19.88;90.35;99604.88;436608;1256;140135;-61
2023/06/22 00:53:18;;;;;;;24.70;22.30;;;;;;;19.89;90.71;99608.65;436438;1255;142073;-59
2023/06/22 01:03:20;;;;;;;22.40;20.40;;;;;;;19.92;91.24;99610.54;436885;1257;139419;-59
2023/06/22 01:13:32;;;;;;;23.50;21.00;;;;;;;19.88;91.64;99605.73;436156;1256;140697;-60
2023/06/22 01:23:50;;;;;;;22.50;20.50;;;;;;;19.90;91.71;99608.37;436816;1253;139169;-60
2023/06/22 01:33:57;;;;;;;25.40;22.90;;;;;;;19.85;91.94;99613.98;436198;1254;139250;-63
2023/06/22 01:44:01;;;;;;;24.80;22.50;;;;;;;19.77;92.02;99615.79;436552;1254;139704;-60
2023/06/22 01:54:06;;;;;;;24.40;21.90;;;;;;;19.64;92.25;99618.30;436942;1253;139305;-60
2023/06/22 02:04:13;;;;;;;23.70;21.40;;;;;;;19.50;92.70;99629.45;436784;1254;139803;-61
2023/06/22 02:14:16;;;;;;;20.50;18.60;;;;;;;19.35;92.82;99633.79;436429;1252;140544;-60
2023/06/22 02:24:23;;;;;;;22.50;20.20;;;;;;;19.26;93.16;99647.63;436589;1252;140136;-60
2023/06/22 02:34:26;;;;;;;22.10;19.90;;;;;;;19.20;92.95;99658.19;436563;1256;139343;-60
2023/06/22 02:44:29;;;;;;;20.00;17.80;;;;;;;19.04;93.03;99669.14;436573;1251;140028;-60
2023/06/22 02:54:33;;;;;;;19.70;17.80;;;;;;;19.00;93.18;99688.88;436611;1256;141369;-62
2023/06/22 03:04:36;;;;;;;22.30;20.20;;;;;;;19.13;92.96;99691.69;436206;1251;139339;-61
2023/06/22 03:14:39;;;;;;;17.50;15.70;;;;;;;19.62;93.00;99691.67;436301;1253;139737;-61
2023/06/22 03:24:42;;;;;;;17.00;15.50;;;;;;;20.36;90.14;99695.04;436249;1254;140930;-61
2023/06/22 03:34:46;;;;;;;16.40;14.90;;;;;;;22.21;87.29;99714.65;436379;1253;140671;-60
2023/06/22 03:44:49;;;;;;;16.20;14.70;;;;;;;22.21;82.09;99715.61;436384;1254;141528;-60
2023/06/22 03:54:53;;;;;;;14.60;13.40;;;;;;;22.08;81.91;99718.14;436125;1251;140295;-61
2023/06/22 04:04:56;;;;;;;13.10;11.80;;;;;;;26.20;77.27;99723.55;436640;1251;139342;-61
2023/06/22 04:14:59;;;;;;;10.60;9.60;;;;;;;30.51;66.45;99736.20;436184;1254;140768;-61
2023/06/22 04:25:03;;;;;;;12.00;10.90;;;;;;;33.59;57.49;99732.58;436296;1251;139170;-61
2023/06/22 04:35:07;;;;;;;10.00;9.00;;;;;;;35.20;50.81;99745.48;436795;1254;140790;-61
2023/06/22 04:45:11;;;;;;;8.70;7.90;;;;;;;36.48;45.84;99749.76;436742;1252;140047;-61
2023/06/22 04:55:18;;;;;;;7.50;6.90;;;;;;;37.99;41.87;99751.23;436237;1251;139145;-60
2023/06/22 05:05:21;;;;;;;8.50;6.70;;;;;;;40.23;38.34;99757.77;436347;1251;139293;-61
2023/06/22 05:15:27;;;;;;;6.40;5.80;;;;;;;41.81;34.60;99761.85;436485;1251;138205;-60
2023/06/22 05:25:32;;;;;;;8.90;6.10;;;;;;;42.68;31.97;99761.73;436208;1251;138868;-60
2023/06/22 05:35:35;;;;;;;5.20;4.80;;;;;;;43.90;29.66;99763.23;436385;1251;139350;-62
2023/06/22 05:45:37;;;;;;;;;;;;;;;44.62;27.84;99773.73;435922;1251;139472;-61
2023/06/22 05:55:40;;;;;;;7.80;5.60;;;;;;;45.71;26.92;99783.48;435800;1254;127702;-61
2023/06/22 06:05:44;;;;;;;6.10;4.90;;;;;;;47.62;24.78;99786.80;436305;1254;138975;-61
2023/06/22 06:15:48;;;;;;;7.30;4.60;;;;;;;48.74;23.24;99782.35;436336;1251;139430;-61
2023/06/22 06:25:51;;;;;;;7.90;3.90;;;;;;;50.57;21.52;99773.52;436185;1254;139120;-60
2023/06/22 06:35:55;;;;;;;4.40;3.50;;;;;;;51.84;20.17;99778.58;436337;1251;139801;-61
2023/06/22 06:45:58;;;;;;;8.70;4.70;;;;;;;52.22;18.93;99779.42;436473;1253;138932;-60
2023/06/22 06:56:02;;;;;;;3.20;3.00;;;;;;;52.07;18.14;99782.23;436325;1254;139793;-60
2023/06/22 07:06:05;;;;;;;3.80;3.50;;;;;;;52.62;17.14;99777.46;437250;1254;138783;-60
2023/06/22 07:16:08;;;;;;;4.20;3.80;;;;;;;51.74;16.59;99772.41;436312;1251;139757;-60
2023/06/22 07:26:12;;;;;;;4.30;3.00;;;;;;;52.08;16.25;99765.45;436483;1251;138768;-58
2023/06/22 07:36:17;;;;;;;3.60;2.80;;;;;;;52.71;15.63;99764.96;436598;1254;138646;-59
2023/06/22 07:46:20;;;;;;;3.30;2.40;;;;;;;52.89;15.07;99753.08;437019;1253;138859;-60
2023/06/22 07:56:23;;;;;;;3.70;3.40;;;;;;;49.30;15.78;99751.59;436189;1251;138981;-60
2023/06/22 08:06:26;;;;;;;6.90;3.20;;;;;;;41.58;18.85;99757.55;436081;1253;139392;-59
2023/06/22 08:16:29;;;;;;;3.70;3.40;;;;;;;36.87;22.59;99771.23;435879;1253;138847;-59
2023/06/22 08:26:35;;;;;;;5.20;3.70;;;;;;;34.39;24.91;99778.68;436193;1254;138260;-59
2023/06/22 08:36:41;;;;;;;3.60;3.30;;;;;;;32.71;26.68;99781.89;436332;1254;139931;-61
2023/06/22 08:46:44;;;;;;;6.70;4.40;;;;;;;31.92;27.60;99788.87;436770;1251;139256;-60
2023/06/22 08:56:47;;;;;;;4.50;2.70;;;;;;;31.20;28.69;99802.52;436085;1253;139910;-59
2023/06/22 09:06:52;;;;;;;3.90;2.40;;;;;;;30.99;29.02;99802.80;436206;1251;140715;-60
2023/06/22 09:16:55;;;;;;;3.50;2.50;;;;;;;30.99;29.01;99803.44;436407;1254;138536;-60
2023/06/22 09:26:58;;;;;;;2.20;1.60;;;;;;;30.77;28.55;99797.20;436133;1254;138501;-60
2023/06/22 09:37:01;;;;;;;5.40;2.20;;;;;;;30.47;28.11;99789.75;436110;1253;139348;-59
2023/06/22 09:47:06;;;;;;;4.70;2.50;;;;;;;30.21;27.93;99780.19;436309;1251;138325;-60
2023/06/22 09:57:09;;;;;;;2.60;2.30;;;;;;;29.87;27.96;99772.41;436250;1250;140496;-61
2023/06/22 10:07:12;;;;;;;2.40;2.20;;;;;;;29.83;28.21;99770.36;436063;1251;138603;-60
2023/06/22 10:17:15;;;;;;;3.20;2.80;;;;;;;29.45;29.14;99769.60;435980;1253;140472;-60
2023/06/22 10:27:18;;;;;;;2.00;1.80;;;;;;;29.33;29.79;99761.80;435756;1253;138990;-59
2023/06/22 10:37:21;;;;;;;3.10;2.80;;;;;;;29.31;30.07;99764.27;435571;1253;138683;-60
2023/06/22 10:47:24;;;;;;;5.80;2.30;;;;;;;29.26;30.45;99769.42;435981;1250;139162;-59
2023/06/22 10:57:27;;;;;;;4.20;2.50;;;;;;;29.07;30.49;99764.59;436189;1254;138833;-61
2023/06/22 11:07:31;;;;;;;3.10;2.00;;;;;;;28.74;30.77;99755.61;436593;1251;139275;-60
2023/06/22 11:17:34;;;;;;;4.10;2.40;;;;;;;28.45;31.19;99743.15;436569;1251;139182;-60
2023/06/22 11:27:37;;;;;;;3.10;2.60;;;;;;;28.34;31.43;99725.16;436349;1251;140243;-60
2023/06/22 11:37:40;;;;;;;3.50;2.40;;;;;;;28.40;31.37;99720.99;436634;1252;138217;-61
2023/06/22 11:47:43;;;;;;;4.40;2.00;;;;;;;28.37;31.52;99724.63;436749;1251;138152;-60
2023/06/22 11:57:55;;;;;;;2.50;1.70;;;;;;;28.25;31.68;99724.66;436520;1254;139349;-61
2023/06/22 12:07:58;;;;;;;2.50;1.90;;;;;;;28.23;31.57;99724.67;436709;1253;139294;-61
2023/06/22 12:18:01;;;;;;;3.80;2.50;;;;;;;28.28;32.30;99714.42;436513;1254;139488;-61
2023/06/22 12:28:05;;;;;;;2.70;2.30;;;;;;;28.17;32.57;99707.26;436759;1251;138788;-60
2023/06/22 12:38:09;;;;;;;4.30;2.80;;;;;;;28.06;32.28;99690.70;435875;1254;139202;-61
2023/06/22 12:48:13;;;;;;;3.40;2.80;;;;;;;27.96;31.65;99688.08;435991;1254;140037;-60
2023/06/22 12:58:17;;;;;;;2.20;2.00;;;;;;;28.23;31.80;99690.64;437514;1251;138156;-59
2023/06/22 13:08:20;;;;;;;4.30;2.60;;;;;;;28.43;31.59;99687.45;436175;1254;138872;-60
2023/06/22 13:18:24;;;;;;;3.00;2.40;;;;;;;28.31;30.82;99674.30;436217;1253;139206;-60
2023/06/22 13:28:29;;;;;;;2.60;1.80;;;;;;;28.18;30.58;99665.11;436400;1253;138138;-59
2023/06/22 13:38:32;;;;;;;4.40;2.90;;;;;;;28.15;30.57;99656.90;436121;1253;138338;-60
2023/06/22 13:48:35;;;;;;;3.40;2.20;;;;;;;28.10;30.51;99652.73;436515;1250;140155;-60
2023/06/22 13:58:38;;;;;;;9.30;2.50;;;;;;;28.07;30.75;99638.51;437054;1255;138347;-60
2023/06/22 14:08:41;;;;;;;3.10;2.20;;;;;;;27.98;30.70;99634.56;436817;1253;139895;-59
2023/06/22 14:18:45;;;;;;;5.10;2.40;;;;;;;28.07;30.90;99637.36;436521;1253;139252;-61
2023/06/22 14:28:50;;;;;;;4.00;2.90;;;;;;;28.44;30.90;99642.39;436567;1254;139088;-59
2023/06/22 14:38:53;;;;;;;2.00;1.90;;;;;;;28.75;30.31;99652.29;436339;1254;139583;-61
2023/06/22 14:48:56;;;;;;;3.10;2.60;;;;;;;28.76;30.19;99649.29;436172;1252;139765;-60
2023/06/22 14:58:59;;;;;;;3.30;2.10;;;;;;;28.58;30.50;99638.41;436142;1254;138184;-60
2023/06/22 15:09:02;;;;;;;4.00;1.80;;;;;;;28.56;30.84;99623.39;436235;1253;138453;-60
2023/06/22 15:19:05;;;;;;;5.20;2.80;;;;;;;28.54;30.77;99617.02;436366;1252;139392;-61
2023/06/22 15:29:08;;;;;;;3.30;2.90;;;;;;;28.41;30.58;99612.48;436366;1253;138292;-61
2023/06/22 15:39:12;;;;;;;2.10;1.90;;;;;;;28.34;30.41;99613.27;436228;1254;138868;-62
2023/06/22 15:49:15;;;;;;;3.40;2.30;;;;;;;28.22;30.43;99618.77;436778;1253;138932;-60
2023/06/22 15:59:18;;;;;;;4.40;2.20;;;;;;;28.08;30.36;99617.22;436405;1255;138316;-61
2023/06/22 16:09:21;;;;;;;1.70;1.60;;;;;;;27.97;30.60;99612.35;435341;1253;139592;-60
2023/06/22 16:19:24;;;;;;;6.30;3.00;;;;;;;27.91;31.07;99606.44;435898;1254;140141;-61
2023/06/22 16:29:28;;;;;;;2.20;1.70;;;;;;;27.77;31.62;99607.27;435793;1251;138117;-61
2023/06/22 16:39:31;;;;;;;2.50;2.30;;;;;;;27.64;32.08;99605.63;436590;1253;138290;-60
2023/06/22 16:49:36;;;;;;;3.20;2.10;;;;;;;27.57;32.29;99602.05;436323;1252;140023;-60
2023/06/22 16:59:39;;;;;;;2.80;2.50;;;;;;;27.46;32.64;99590.91;436441;1253;138616;-60
2023/06/22 17:09:45;;;;;;;3.00;1.90;;;;;;;27.25;33.09;99583.67;436601;1253;138074;-60
2023/06/22 17:19:49;;;;;;;4.20;2.30;;;;;;;27.01;33.46;99577.02;436668;1256;138908;-61
2023/06/22 17:30:04;;;;;;;2.70;2.50;;;;;;;26.78;34.04;99561.77;436388;1253;139250;-60
2023/06/22 17:40:15;;;;;;;4.80;2.20;;;;;;;26.49;34.60;99556.83;436579;1255;138267;-60
2023/06/22 17:50:19;;;;;;;4.40;2.00;;;;;;;26.20;34.97;99553.84;436486;1253;139572;-60
2023/06/22 18:00:22;;;;;;;2.00;1.80;;;;;;;26.10;35.07;99545.09;436519;1254;138420;-61
2023/06/22 18:10:27;;;;;;;2.80;2.20;;;;;;;26.27;34.84;99528.36;436556;1254;140658;-60
2023/06/22 18:20:34;;;;;;;2.30;2.10;;;;;;;25.71;35.19;99515.96;437039;1254;139352;-60
2023/06/22 18:30:38;;;;;;;4.00;2.90;;;;;;;25.20;35.89;99516.08;436837;1256;139574;-61
2023/06/22 18:40:50;;;;;;;2.30;2.00;;;;;;;24.78;36.52;99519.73;437165;1255;138542;-61
2023/06/22 18:50:53;;;;;;;2.80;2.10;;;;;;;24.38;37.24;99528.86;436899;1256;139992;-62
2023/06/22 19:01:16;;;;;;;5.90;3.10;;;;;;;24.02;37.81;99533.80;436825;1255;138233;-59
2023/06/22 19:11:26;;;;;;;4.60;3.40;;;;;;;23.68;38.38;99541.12;436913;1254;139679;-59
2023/06/22 19:21:29;;;;;;;7.60;2.30;;;;;;;23.33;39.59;99551.25;436475;1254;138453;-61
2023/06/22 19:31:32;;;;;;;7.10;2.60;;;;;;;22.95;40.70;99554.52;436030;1254;394344;-60
2023/06/22 19:41:36;;;;;;;4.60;3.10;;;;;;;22.64;41.46;99550.50;436502;1253;139205;-61
2023/06/22 19:51:39;;;;;;;3.90;2.40;;;;;;;22.32;42.32;99536.62;436448;1256;138758;-61
2023/06/22 20:01:44;;;;;;;7.30;3.20;;;;;;;22.13;42.52;99522.99;436416;1251;139097;-61
2023/06/22 20:11:47;;;;;;;9.50;3.60;;;;;;;21.93;43.65;99503.12;436588;1251;138258;-61
2023/06/22 20:21:50;;;;;;;4.90;3.40;;;;;;;21.66;45.39;99500.61;436660;1255;139029;-60
2023/06/22 20:32:04;;;;;;;5.60;3.10;;;;;;;21.31;46.34;99498.78;436562;1254;139283;-60
2023/06/22 20:42:08;;;;;;;8.10;3.30;;;;;;;20.99;47.18;99488.22;436719;1253;138735;-61
2023/06/22 20:52:11;;;;;;;7.00;3.30;;;;;;;20.63;49.05;99486.81;439950;1251;138963;-60
2023/06/22 21:02:16;;;;;;;5.60;3.50;;;;;;;20.32;50.38;99475.59;436336;1254;138875;-61
2023/06/22 21:12:19;;;;;;;4.80;3.90;;;;;;;19.97;51.34;99471.42;436338;1251;139351;-62
2023/06/22 21:22:23;;;;;;;6.20;4.50;;;;;;;19.65;52.10;99464.13;436839;1253;138621;-60
2023/06/22 21:32:26;;;;;;;6.50;4.00;;;;;;;19.40;53.53;99489.05;436751;1256;138964;-60
2023/06/22 21:42:29;;;;;;;9.10;4.40;;;;;;;19.14;54.38;99487.05;436775;1251;138731;-61
2023/06/22 21:52:32;;;;;;;5.40;3.90;;;;;;;18.91;55.55;99499.07;436857;1251;139555;-61
2023/06/22 22:02:36;;;;;;;7.70;4.30;;;;;;;18.70;56.63;99509.34;436790;1251;139013;-61
2023/06/22 22:12:39;;;;;;;8.90;6.00;;;;;;;18.47;56.78;99489.97;436970;1254;138832;-64
2023/06/22 22:22:42;;;;;;;10.70;5.20;;;;;;;18.34;57.69;99481.97;436763;1251;139192;-61
2023/06/22 22:32:45;;;;;;;8.70;5.60;;;;;;;18.26;58.04;99472.47;436268;1254;138487;-60
2023/06/22 22:42:48;;;;;;;11.10;7.00;;;;;;;18.18;58.27;99456.44;436329;1253;138282;-59
2023/06/22 22:52:51;;;;;;;10.00;6.70;;;;;;;18.17;57.98;99443.57;436190;1251;139409;-60
2023/06/22 23:02:54;;;;;;;9.80;6.20;;;;;;;18.22;57.64;99415.66;436287;1251;138772;-58
2023/06/22 23:12:58;;;;;;;8.30;5.00;;;;;;;18.33;57.02;99384.67;436188;1254;138393;-60
2023/06/22 23:23:03;;;;;;;7.50;5.80;;;;;;;18.38;56.61;99376.48;436415;1251;139027;-61
2023/06/22 23:33:06;;;;;;;5.10;4.60;;;;;;;18.45;56.38;99380.64;436227;1251;140216;-60
2023/06/22 23:43:09;;;;;;;9.60;6.00;;;;;;;18.36;57.33;99398.13;436741;1251;138771;-60
2023/06/22 23:53:12;;;;;;;7.80;5.00;;;;;;;18.25;57.82;99392.71;436543;1254;139080;-60
